createdAt,value
2018-06-14T00:01:04.847Z,18.20
2018-06-14T00:03:34.739Z,18.20
2018-06-14T00:06:03.864Z,18.20
2018-06-14T00:08:33.342Z,18.20
2018-06-14T00:11:02.598Z,18.10
2018-06-14T00:13:32.945Z,18.10
2018-06-14T00:18:31.976Z,18.00
2018-06-14T00:21:01.686Z,18.00
2018-06-14T00:23:31.502Z,18.00
2018-06-14T00:26:01.599Z,17.90
2018-06-14T00:28:31.052Z,18.00
2018-06-14T00:30:59.944Z,18.10
2018-06-14T00:33:29.705Z,18.10
2018-06-14T00:35:58.392Z,17.90
2018-06-14T00:40:57.771Z,17.80
2018-06-14T00:43:28.675Z,17.70
2018-06-14T00:45:58.741Z,17.80
2018-06-14T00:48:30.276Z,17.80
2018-06-14T00:50:59.877Z,17.70
2018-06-14T00:53:30.621Z,17.80
2018-06-14T00:56:00.637Z,17.90
2018-06-14T00:58:30.671Z,18.00
2018-06-14T01:00:59.792Z,18.10
2018-06-14T01:03:31.092Z,17.80
2018-06-14T01:06:00.200Z,17.90
2018-06-14T01:08:29.932Z,17.80
2018-06-14T01:10:59.342Z,17.80
2018-06-14T01:15:56.581Z,17.70
2018-06-14T01:18:25.996Z,17.60
2018-06-14T01:20:57.824Z,17.60
2018-06-14T01:23:31.549Z,17.60
2018-06-14T01:26:01.697Z,17.50
2018-06-14T01:28:32.564Z,17.60
2018-06-14T01:31:06.489Z,17.50
2018-06-14T01:33:40.207Z,17.60
2018-06-14T01:36:09.202Z,17.50
2018-06-14T01:38:38.160Z,17.60
2018-06-14T01:43:39.740Z,17.60
2018-06-14T01:46:08.640Z,17.70
2018-06-14T01:48:38.690Z,17.50
2018-06-14T01:51:07.857Z,17.60
2018-06-14T01:53:36.744Z,17.50
2018-06-14T01:56:05.651Z,17.50
2018-06-14T01:58:35.630Z,17.50
2018-06-14T02:01:05.343Z,17.40
2018-06-14T02:03:34.378Z,17.50
2018-06-14T02:06:03.541Z,17.50
2018-06-14T02:08:32.957Z,17.50
2018-06-14T02:11:02.076Z,17.60
2018-06-14T02:13:30.952Z,17.60
2018-06-14T02:16:00.423Z,17.50
2018-06-14T02:18:29.247Z,17.50
2018-06-14T02:20:58.779Z,17.50
2018-06-14T02:23:28.369Z,17.50
2018-06-14T02:25:58.458Z,17.50
2018-06-14T02:28:28.423Z,17.60
2018-06-14T02:30:57.917Z,17.50
2018-06-14T02:33:27.737Z,17.50
2018-06-14T02:35:57.415Z,17.40
2018-06-14T02:38:27.673Z,17.40
2018-06-14T02:41:01.226Z,17.40
2018-06-14T02:43:30.133Z,17.40
2018-06-14T02:45:59.679Z,17.40
2018-06-14T02:48:28.892Z,17.30
2018-06-14T02:51:06.818Z,17.20
2018-06-14T02:53:40.865Z,17.30
2018-06-14T02:56:13.719Z,17.30
2018-06-14T02:58:42.694Z,17.40
2018-06-14T03:01:13.994Z,17.40
2018-06-14T03:03:42.963Z,17.30
2018-06-14T03:06:12.509Z,17.20
2018-06-14T03:08:43.448Z,17.20
2018-06-14T03:11:13.782Z,17.20
2018-06-14T03:13:42.556Z,17.40
2018-06-14T03:16:12.209Z,17.40
2018-06-14T03:18:41.699Z,17.30
2018-06-14T03:21:10.713Z,17.30
2018-06-14T03:26:09.354Z,17.40
2018-06-14T03:28:38.279Z,17.30
2018-06-14T03:31:07.774Z,17.40
2018-06-14T03:33:38.045Z,17.40
2018-06-14T03:36:08.558Z,17.30
2018-06-14T03:38:38.266Z,17.30
2018-06-14T03:41:06.991Z,17.40
2018-06-14T03:43:36.541Z,17.30
2018-06-14T03:46:06.104Z,17.30
2018-06-14T03:51:05.758Z,17.40
2018-06-14T03:53:36.826Z,17.40
2018-06-14T03:56:06.188Z,17.30
2018-06-14T03:58:35.785Z,17.30
2018-06-14T04:03:35.716Z,17.20
2018-06-14T04:06:05.157Z,17.30
2018-06-14T04:08:34.413Z,17.40
2018-06-14T04:11:04.337Z,17.30
2018-06-14T04:13:38.317Z,17.20
2018-06-14T04:16:08.073Z,17.30
2018-06-14T04:18:36.788Z,17.40
2018-06-14T04:21:06.179Z,17.30
2018-06-14T04:23:34.921Z,17.40
2018-06-14T04:26:04.365Z,17.40
2018-06-14T04:28:33.431Z,17.40
2018-06-14T04:31:03.058Z,17.30
2018-06-14T04:33:32.058Z,17.40
2018-06-14T04:36:01.876Z,17.30
2018-06-14T04:38:32.650Z,17.30
2018-06-14T04:41:02.617Z,17.40
2018-06-14T04:43:31.509Z,17.40
2018-06-14T04:46:00.773Z,17.20
2018-06-14T04:50:58.749Z,17.20
2018-06-14T04:53:28.856Z,17.30
2018-06-14T04:55:58.226Z,17.40
2018-06-14T04:58:27.707Z,17.50
2018-06-14T05:01:00.976Z,17.50
2018-06-14T05:03:30.328Z,17.40
2018-06-14T05:05:59.181Z,17.30
2018-06-14T05:10:57.591Z,17.40
2018-06-14T05:13:26.664Z,17.40
2018-06-14T05:16:04.085Z,17.50
2018-06-14T05:18:32.845Z,17.50
2018-06-14T05:21:02.467Z,17.50
2018-06-14T05:23:32.528Z,17.50
2018-06-14T05:26:01.844Z,17.60
2018-06-14T05:28:30.938Z,17.50
2018-06-14T05:31:04.681Z,17.60
2018-06-14T05:33:34.785Z,17.50
2018-06-14T05:36:04.265Z,17.50
2018-06-14T05:38:33.010Z,17.40
2018-06-14T05:41:01.876Z,17.50
2018-06-14T05:43:30.792Z,17.50
2018-06-14T05:45:59.612Z,17.60
2018-06-14T05:48:29.330Z,17.60
2018-06-14T05:50:58.956Z,17.50
2018-06-14T05:53:28.380Z,17.60
2018-06-14T05:55:58.789Z,17.40
2018-06-14T05:58:27.543Z,17.20
2018-06-14T06:00:56.842Z,17.20
2018-06-14T06:03:26.895Z,17.30
2018-06-14T06:05:56.133Z,17.30
2018-06-14T06:08:25.277Z,17.40
2018-06-14T06:10:54.757Z,17.50
2018-06-14T06:13:24.228Z,17.60
2018-06-14T06:15:53.080Z,17.60
2018-06-14T07:40:25.239Z,17.50
2018-06-14T07:42:54.895Z,17.00
2018-06-14T07:45:23.690Z,17.00
2018-06-14T07:47:53.852Z,17.00
2018-06-14T07:50:23.428Z,17.00
2018-06-14T07:52:52.849Z,17.10
2018-06-14T07:55:22.143Z,17.20
2018-06-14T07:57:54.973Z,17.20
2018-06-14T08:02:53.922Z,17.30
2018-06-14T08:05:23.861Z,17.30
2018-06-14T08:07:57.434Z,17.30
2018-06-14T08:10:26.224Z,17.40
2018-06-14T08:12:55.057Z,17.50
2018-06-14T08:15:23.883Z,17.50
2018-06-14T08:17:54.727Z,17.60
2018-06-14T08:20:25.104Z,17.60
2018-06-14T08:22:53.810Z,17.70
2018-06-14T08:25:23.125Z,17.70
2018-06-14T08:27:53.002Z,17.80
2018-06-14T08:30:23.051Z,17.80
2018-06-14T08:32:52.029Z,17.80
2018-06-14T08:35:20.819Z,17.80
2018-06-14T08:37:50.652Z,17.90
2018-06-14T08:40:19.393Z,18.00
2018-06-14T08:42:48.233Z,18.00
2018-06-14T08:45:17.552Z,18.10
2018-06-14T08:47:47.907Z,18.30
2018-06-14T08:50:17.112Z,18.50
2018-06-14T08:52:50.511Z,18.60
2018-06-14T08:55:19.435Z,18.70
2018-06-14T08:57:48.194Z,18.80
2018-06-14T09:00:17.249Z,18.90
2018-06-14T09:02:46.416Z,18.80
2018-06-14T09:05:16.090Z,19.00
2018-06-14T09:07:44.855Z,18.80
2018-06-14T09:10:14.643Z,18.90
2018-06-14T09:12:43.682Z,18.80
2018-06-14T09:15:16.994Z,18.90
2018-06-14T09:17:45.949Z,18.90
2018-06-14T09:20:15.321Z,18.80
2018-06-14T09:22:44.056Z,18.80
2018-06-14T09:25:12.753Z,18.80
2018-06-14T09:27:42.663Z,18.90
2018-06-14T09:30:11.524Z,18.90
2018-06-14T09:32:40.471Z,18.90
2018-06-14T09:35:09.179Z,19.00
2018-06-14T09:37:38.532Z,19.00
2018-06-14T09:40:07.294Z,18.80
2018-06-14T09:42:36.473Z,18.90
2018-06-14T09:45:05.630Z,18.90
2018-06-14T09:47:34.314Z,18.90
2018-06-14T09:50:03.078Z,18.80
2018-06-14T09:52:32.613Z,18.90
2018-06-14T09:55:02.210Z,19.00
2018-06-14T09:57:32.379Z,18.90
2018-06-14T10:00:02.015Z,18.90
2018-06-14T10:02:31.930Z,19.00
2018-06-14T10:05:01.297Z,19.00
2018-06-14T10:07:30.042Z,19.00
2018-06-14T10:09:58.777Z,19.00
2018-06-14T10:12:28.040Z,18.90
2018-06-14T10:14:57.402Z,18.90
2018-06-14T10:17:26.847Z,18.80
2018-06-14T10:19:56.282Z,18.70
2018-06-14T10:22:25.761Z,18.80
2018-06-14T10:24:56.183Z,18.80
2018-06-14T10:27:26.338Z,18.90
2018-06-14T10:29:55.973Z,18.80
2018-06-14T10:32:25.715Z,18.80
2018-06-14T10:34:56.269Z,18.80
2018-06-14T10:37:26.215Z,18.70
2018-06-14T10:39:55.988Z,18.70
2018-06-14T10:42:25.359Z,18.70
2018-06-14T10:44:59.103Z,18.70
2018-06-14T10:47:31.479Z,18.60
2018-06-14T10:50:01.824Z,18.40
2018-06-14T10:52:31.600Z,18.40
2018-06-14T10:55:02.456Z,18.50
2018-06-14T10:57:32.366Z,18.50
2018-06-14T11:00:02.885Z,18.50
2018-06-14T11:02:31.590Z,18.50
2018-06-14T11:05:00.820Z,18.60
2018-06-14T11:07:29.508Z,18.70
2018-06-14T11:09:58.295Z,18.60
2018-06-14T11:12:28.195Z,18.50
2018-06-14T11:14:56.904Z,18.60
2018-06-14T11:17:26.150Z,18.60
2018-06-14T11:19:54.849Z,18.70
2018-06-14T11:22:24.956Z,18.70
2018-06-14T11:25:01.932Z,18.70
2018-06-14T11:27:32.063Z,18.80
2018-06-14T11:30:00.870Z,18.90
2018-06-14T11:32:29.629Z,18.80
2018-06-14T11:34:58.417Z,18.80
2018-06-14T11:37:27.473Z,18.70
2018-06-14T11:39:57.017Z,18.70
2018-06-14T11:42:26.358Z,18.80
2018-06-14T11:44:55.765Z,18.70
2018-06-14T11:47:25.209Z,18.70
2018-06-14T11:49:53.986Z,18.80
2018-06-14T11:52:23.802Z,18.80
2018-06-14T11:54:53.962Z,18.80
2018-06-14T11:57:23.480Z,18.90
2018-06-14T11:59:53.801Z,19.00
2018-06-14T12:02:23.168Z,19.00
2018-06-14T12:04:52.926Z,19.20
2018-06-14T12:07:22.378Z,19.20
2018-06-14T12:09:51.163Z,19.30
2018-06-14T12:14:48.781Z,19.30
2018-06-14T12:17:17.573Z,19.40
2018-06-14T12:19:47.078Z,19.50
2018-06-14T12:22:15.830Z,19.60
2018-06-14T12:24:49.010Z,19.60
2018-06-14T12:27:19.087Z,19.60
2018-06-14T12:29:48.174Z,19.60
2018-06-14T12:32:16.924Z,19.60
2018-06-14T12:37:16.802Z,19.80
2018-06-14T12:39:46.281Z,19.80
2018-06-14T12:42:16.391Z,19.80
2018-06-14T12:44:51.160Z,19.90
2018-06-14T12:47:20.849Z,19.90
2018-06-14T12:49:51.088Z,19.80
2018-06-14T12:52:20.050Z,20.00
2018-06-14T12:54:50.196Z,20.10
2018-06-14T12:57:19.144Z,20.10
2018-06-14T12:59:48.748Z,20.10
2018-06-14T13:02:17.497Z,20.10
2018-06-14T13:04:48.031Z,20.10
2018-06-14T13:07:17.586Z,20.10
2018-06-14T13:09:48.149Z,20.00
2018-06-14T13:12:17.655Z,20.10
2018-06-14T13:14:47.508Z,20.20
2018-06-14T13:17:17.027Z,20.10
2018-06-14T13:19:46.288Z,20.10
2018-06-14T13:22:16.189Z,20.10
2018-06-14T13:24:46.712Z,20.00
2018-06-14T13:27:16.263Z,19.90
2018-06-14T13:29:45.980Z,19.80
2018-06-14T13:32:15.603Z,19.90
2018-06-14T13:34:45.684Z,19.70
2018-06-14T13:37:16.263Z,19.70
2018-06-14T13:39:45.815Z,19.80
2018-06-14T13:42:15.739Z,19.90
2018-06-14T13:44:45.573Z,19.90
2018-06-14T13:47:15.847Z,20.00
2018-06-14T13:49:46.137Z,20.00
2018-06-14T13:52:14.981Z,20.00
2018-06-14T13:54:47.933Z,20.10
2018-06-14T13:57:17.268Z,20.00
2018-06-14T13:59:46.546Z,20.00
2018-06-14T14:02:16.513Z,19.90
2018-06-14T14:04:45.405Z,20.00
2018-06-14T14:07:18.353Z,20.00
2018-06-14T14:09:47.568Z,20.10
2018-06-14T14:12:17.117Z,20.10
2018-06-14T14:14:46.615Z,20.20
2018-06-14T14:17:16.336Z,20.20
2018-06-14T14:19:46.471Z,20.30
2018-06-14T14:22:17.773Z,20.20
2018-06-14T14:24:46.432Z,20.20
2018-06-14T14:27:16.159Z,20.30
2018-06-14T14:29:45.611Z,20.20
2018-06-14T14:32:14.644Z,20.10
2018-06-14T14:34:44.679Z,20.00
2018-06-14T14:37:14.257Z,20.10
2018-06-14T14:39:43.773Z,20.20
2018-06-14T14:42:12.772Z,20.10
2018-06-14T14:44:42.065Z,20.10
2018-06-14T14:47:10.805Z,20.10
2018-06-14T14:49:39.715Z,20.00
2018-06-14T14:54:39.116Z,19.80
2018-06-14T14:57:11.350Z,19.90
2018-06-14T14:59:40.761Z,19.90
2018-06-14T15:02:11.680Z,20.00
2018-06-14T15:04:41.894Z,20.00
2018-06-14T15:07:12.221Z,20.10
2018-06-14T15:09:41.293Z,20.00
2018-06-14T15:12:10.413Z,20.00
2018-06-14T15:14:39.974Z,20.00
2018-06-14T15:17:08.823Z,19.90
2018-06-14T15:19:38.638Z,20.00
2018-06-14T15:22:09.234Z,20.10
2018-06-14T15:24:38.296Z,20.10
2018-06-14T15:27:07.260Z,20.10
2018-06-14T15:29:36.897Z,20.20
2018-06-14T15:32:11.468Z,20.20
2018-06-14T15:34:40.770Z,20.30
2018-06-14T15:37:10.219Z,20.40
2018-06-14T15:39:39.165Z,20.60
2018-06-14T15:42:08.632Z,20.60
2018-06-14T15:44:37.539Z,20.60
2018-06-14T15:49:34.828Z,20.60
2018-06-14T15:52:06.119Z,20.60
2018-06-14T15:54:35.089Z,20.60
2018-06-14T15:57:09.501Z,20.70
2018-06-14T15:59:39.492Z,20.80
2018-06-14T16:02:09.188Z,20.70
2018-06-14T16:04:39.005Z,20.80
2018-06-14T16:07:10.184Z,20.80
2018-06-14T16:09:42.149Z,20.60
2018-06-14T16:12:11.925Z,20.60
2018-06-14T16:17:10.258Z,20.50
2018-06-14T16:19:39.465Z,20.40
2018-06-14T16:22:08.545Z,20.40
2018-06-14T16:24:38.542Z,20.40
2018-06-14T16:29:36.117Z,20.40
2018-06-14T16:32:04.966Z,20.30
2018-06-14T16:34:34.479Z,20.30
2018-06-14T16:37:07.734Z,20.30
2018-06-14T16:39:42.273Z,20.20
2018-06-14T16:42:12.117Z,20.20
2018-06-14T16:44:40.854Z,20.40
2018-06-14T16:47:09.738Z,20.30
2018-06-14T16:49:39.672Z,20.30
2018-06-14T16:52:08.664Z,20.30
2018-06-14T16:54:38.452Z,20.30
2018-06-14T16:57:08.169Z,20.30
2018-06-14T16:59:37.158Z,20.20
2018-06-14T17:04:34.745Z,20.00
2018-06-14T17:07:03.807Z,19.90
2018-06-14T17:09:35.083Z,19.90
2018-06-14T17:12:08.506Z,20.00
2018-06-14T17:14:38.419Z,20.00
2018-06-14T17:17:07.217Z,20.00
2018-06-14T17:19:37.447Z,20.00
2018-06-14T17:22:06.400Z,20.00
2018-06-14T17:24:36.535Z,20.00
2018-06-14T17:27:05.709Z,20.00
2018-06-14T17:29:35.591Z,20.00
2018-06-14T17:32:09.545Z,19.90
2018-06-14T17:34:38.369Z,19.90
2018-06-14T17:37:07.663Z,19.90
2018-06-14T17:39:37.355Z,19.80
2018-06-14T17:42:06.277Z,19.80
2018-06-14T17:44:36.285Z,19.80
2018-06-14T17:47:05.689Z,19.80
2018-06-14T17:49:35.717Z,19.80
2018-06-14T17:52:05.555Z,19.70
2018-06-14T17:54:35.707Z,19.70
2018-06-14T17:57:04.729Z,19.70
2018-06-14T17:59:34.309Z,19.60
2018-06-14T18:02:03.783Z,19.60
2018-06-14T18:04:33.148Z,19.60
2018-06-14T18:07:03.621Z,19.70
2018-06-14T18:09:36.651Z,19.60
2018-06-14T18:12:05.896Z,19.40
2018-06-14T18:14:35.276Z,19.50
2018-06-14T18:17:05.075Z,19.50
2018-06-14T18:19:34.460Z,19.50
2018-06-14T18:22:04.110Z,19.40
2018-06-14T18:24:34.344Z,19.30
2018-06-14T18:27:05.086Z,19.20
2018-06-14T18:29:35.423Z,19.30
2018-06-14T18:32:05.681Z,19.30
2018-06-14T18:34:35.387Z,19.20
2018-06-14T18:37:04.621Z,19.30
2018-06-14T18:39:34.531Z,19.20
2018-06-14T18:42:05.051Z,19.20
2018-06-14T18:44:34.702Z,19.30
2018-06-14T18:47:04.389Z,19.20
2018-06-14T18:49:38.147Z,19.30
2018-06-14T18:52:07.861Z,19.30
2018-06-14T18:54:36.725Z,19.30
2018-06-14T18:57:05.681Z,19.10
2018-06-14T18:59:35.356Z,19.20
2018-06-14T19:02:04.463Z,19.20
2018-06-14T19:04:33.845Z,19.10
2018-06-14T19:07:08.340Z,19.10
2018-06-14T19:09:37.738Z,19.10
2018-06-14T19:12:07.359Z,19.20
2018-06-14T19:17:05.265Z,19.20
2018-06-14T19:19:34.830Z,19.10
2018-06-14T19:22:04.097Z,19.20
2018-06-14T19:24:34.474Z,19.10
2018-06-14T19:27:03.921Z,19.10
2018-06-14T19:29:33.612Z,19.00
2018-06-14T19:32:09.337Z,18.90
2018-06-14T19:34:38.904Z,18.90
2018-06-14T19:37:08.355Z,18.90
2018-06-14T19:39:37.659Z,19.00
2018-06-14T19:42:07.832Z,18.90
2018-06-14T19:44:36.783Z,19.00
2018-06-14T19:47:05.768Z,18.90
2018-06-14T19:49:35.365Z,18.80
2018-06-14T19:52:04.628Z,18.80
2018-06-14T19:54:34.426Z,18.80
2018-06-14T19:57:08.859Z,18.60
2018-06-14T19:59:39.309Z,18.60
2018-06-14T20:02:09.110Z,18.70
2018-06-14T20:04:38.405Z,18.70
2018-06-14T20:07:09.090Z,18.60
2018-06-14T20:09:39.951Z,18.50
2018-06-14T20:12:09.034Z,18.60
2018-06-14T20:14:38.166Z,18.70
2018-06-14T20:17:06.877Z,18.80
2018-06-14T20:19:35.623Z,18.60
2018-06-14T20:22:05.816Z,18.60
2018-06-14T20:24:34.812Z,18.60
2018-06-14T20:27:04.514Z,18.60
2018-06-14T20:29:34.458Z,18.60
2018-06-14T20:32:05.845Z,18.70
2018-06-14T20:34:35.818Z,18.70
2018-06-14T20:39:39.881Z,18.70
2018-06-14T20:42:09.602Z,18.60
2018-06-14T20:44:38.732Z,18.80
2018-06-14T20:47:07.717Z,18.70
2018-06-14T20:49:37.138Z,18.60
2018-06-14T20:52:06.063Z,18.60
2018-06-14T20:54:35.805Z,18.70
2018-06-14T20:57:04.825Z,18.70
2018-06-14T20:59:34.401Z,18.70
2018-06-14T21:02:04.589Z,18.70
2018-06-14T21:04:34.010Z,18.70
2018-06-14T21:07:02.702Z,18.60
2018-06-14T21:09:31.724Z,18.60
2018-06-14T21:12:00.477Z,18.70
2018-06-14T21:14:29.987Z,18.60
2018-06-14T21:17:00.468Z,18.60
2018-06-14T21:19:31.334Z,18.60
2018-06-14T21:22:00.840Z,18.60
2018-06-14T21:24:29.740Z,18.70
2018-06-14T21:26:59.264Z,18.60
2018-06-14T21:29:28.848Z,18.50
2018-06-14T21:31:58.423Z,18.50
2018-06-14T21:34:27.861Z,18.50
2018-06-14T21:36:56.747Z,18.60
2018-06-14T21:39:25.659Z,18.70
2018-06-14T21:41:54.620Z,18.60
2018-06-14T21:44:23.921Z,18.50
2018-06-14T21:46:54.348Z,18.50
2018-06-14T21:49:23.586Z,18.50
2018-06-14T21:51:53.061Z,18.50
2018-06-14T21:54:21.749Z,18.50
2018-06-14T21:59:19.095Z,18.40
2018-06-14T22:01:47.893Z,18.40
2018-06-14T22:04:17.557Z,18.20
2018-06-14T22:06:47.537Z,18.10
2018-06-14T22:09:16.354Z,18.00
2018-06-14T22:11:48.088Z,18.00
2018-06-14T22:14:16.920Z,18.10
2018-06-14T22:16:46.793Z,18.10
2018-06-14T22:19:16.457Z,18.10
2018-06-14T22:21:55.477Z,18.20
2018-06-14T22:24:24.936Z,18.10
2018-06-14T22:26:54.788Z,18.00
2018-06-14T22:29:24.592Z,18.00
2018-06-14T22:31:54.466Z,18.00
2018-06-14T22:34:34.464Z,18.00
2018-06-14T22:37:04.457Z,18.00
2018-06-14T22:39:33.910Z,18.00
2018-06-14T22:42:03.321Z,17.90
2018-06-14T22:44:32.885Z,18.00
2018-06-14T22:47:02.424Z,17.90
2018-06-14T22:49:31.092Z,17.90
2018-06-14T22:53:04.448Z,17.90
2018-06-14T22:55:34.496Z,18.00
2018-06-14T22:58:03.971Z,18.00
2018-06-14T23:01:49.237Z,17.90
2018-06-14T23:04:19.494Z,17.90
2018-06-14T23:06:48.728Z,17.90
2018-06-14T23:10:29.093Z,17.90
2018-06-14T23:12:58.458Z,17.90
2018-06-14T23:15:28.439Z,17.80
2018-06-14T23:17:57.365Z,17.90
2018-06-14T23:20:28.003Z,17.90
2018-06-14T23:22:58.084Z,17.90
2018-06-14T23:25:27.750Z,17.90
2018-06-14T23:27:57.863Z,17.90
2018-06-14T23:30:26.851Z,18.00
2018-06-14T23:32:55.476Z,18.00
2018-06-14T23:35:24.563Z,18.10
2018-06-14T23:37:53.989Z,18.10
2018-06-14T23:40:24.944Z,18.00
2018-06-14T23:42:54.762Z,17.90
2018-06-14T23:45:24.101Z,18.00
2018-06-14T23:47:53.594Z,18.00
2018-06-14T23:50:22.529Z,18.00
2018-06-14T23:52:52.767Z,18.10
2018-06-14T23:55:22.743Z,18.20
2018-06-14T23:57:51.493Z,18.10
